• Join FlightAware (Why Join?)
  • Login
  • US Flag 
12:00PM EDT


 

Airport Tracker/Info


-or-


 

Live Flight TrackerFlight Track Log ✈ N721CT ✈ 21-Aug-2013 ✈ KOKC - KRVS

Flight Track Log - Related Links

Times and Time Zones

All times are in EDT time to prevent confusion due to time zone crossing. See the N721CT flight status page for this flight to view local times or setup timezone preferences in your user account.

Time Position Orientation Groundspeed Altitude Reporting Facility
EDT Latitude Longitude Course Direction KTS MPH feet Rate Location/Type
01:38PM 35.7003 -97.1711 75° East 132 152 4,500  Level Kansas City Center
01:39PM 35.7111 -97.1225 75° East 141 162 3,500 -480 Descending Kansas City Center
01:41PM 35.7236 -97.0797 70° East 139 160 3,600  Climbing Kansas City Center
01:42PM 35.7372 -97.0383 68° East 134 154 3,500 -60 Descending Kansas City Center
01:43PM 35.7489 -96.9956 71° East 132 152 3,500  Level Kansas City Center
01:44PM 35.7608 -96.9542 70° East 130 150 3,500  Level Kansas City Center
01:45PM 35.7764 -96.9044 69° East 130 150 3,500  Level Kansas City Center
01:46PM 35.7883 -96.8639 70° East 127 146 3,500  Level Kansas City Center
01:47PM 35.8006 -96.8233 70° East 127 146 3,600  Climbing Kansas City Center
01:48PM 35.8122 -96.7819 71° East 127 146 3,500  Descending Kansas City Center
01:49PM 35.8236 -96.7403 71° East 128 147 3,600  Climbing Kansas City Center
01:50PM 35.8356 -96.6983 71° East 130 150 3,500 -60 Descending Kansas City Center
01:51PM 35.8497 -96.6494 70° East 128 147 3,500  Level Kansas City Center
01:52PM 35.8617 -96.6086 70° East 127 146 3,600  Climbing Kansas City Center
01:52PM 35.8692 -96.5858 68° East 128 147 3,500  Descending Kansas City Center
01:54PM 35.8822 -96.5381 71° East 124 143 3,600  Climbing Kansas City Center
01:55PM 35.8956 -96.4950 69° East 124 143 3,500  Descending Kansas City Center
01:56PM 35.9069 -96.4550 71° East 124 143 3,600  Climbing Kansas City Center
01:57PM 35.9186 -96.4175 69° East 122 140 3,600  Level Kansas City Center
01:58PM 35.9278 -96.3778 74° East 121 139 3,600  Level Kansas City Center
01:59PM 35.9353 -96.3408 76° East 120 138 3,600 -60 Level Kansas City Center
02:00PM 35.9506 -96.2975 66° East 134 154 3,500 -60 Descending Kansas City Center
02:01PM 35.9622 -96.2600 69° East 129 148 3,500  Level Kansas City Center
02:01PM 35.9681 -96.2392 71° East 127 146 3,500  Level Kansas City Center
02:02PM 35.9736 -96.2200 70° East 128 147 3,500 -120 Level Kansas City Center
02:02PM 35.9789 -96.1978 74° East 127 146 3,400 60 Descending Kansas City Center
02:03PM 35.9889 -96.1767 60° Northeast 126 145 3,600 60 Climbing Kansas City Center
02:03PM 35.9944 -96.1583 69° East 127 146 3,500 -180 Descending Kansas City Center
02:04PM 36.0067 -96.1189 69° East 124 143 3,400 -120 Descending Kansas City Center
02:05PM 36.0156 -96.0958 65° Northeast 121 139 3,400 -480 Level Kansas City Center
02:05PM 36.0231 -96.0717 69° East 125 144 2,900 -840 Descending Kansas City Center
02:06PM 36.0325 -96.0286 75° East 128 147 2,200 -660 Descending Kansas City Center
02:07PM 36.0528 -95.9964 52° Northeast 125 144 1,600 -660 Descending Kansas City Center
02:08PM 36.0592 -95.9894 41° Northeast 96 110 1,200 -720 Descending Kansas City Center
02:08PM 36.0558 -95.9789 111° Southeast 91 105 900 -300 Descending Kansas City Center
02:09PM 36.0389 -95.9719 162° South 86 99 800 -120 Descending Kansas City Center
02:11PM 36.0396 -95.9846 239° Southwest  Level Estimated